Time;durP1;ratioP1;P1;durP2;ratioP2;P2;SDS_P1;SDS_P2;PMS_P1;PMS_P2;Temp;Humidity;BMP_temperature;BMP_pressure;BME280_temperature;BME280_humidity;BME280_pressure;Samples;Min_cycle;Max_cycle;Signal;HPM_P1;HPM_P2
2022/03/15 00:01:13;;;;;;;12.05;6.95;;;;;;;-148.16;100.00;58328.31;4994091;28;20145;-56
2022/03/15 00:03:58;;;;;;;13.80;7.13;;;;;;;-148.16;100.00;58328.31;4993818;28;20070;-56
2022/03/15 00:06:43;;;;;;;12.70;7.10;;;;;;;-148.16;100.00;58328.31;4994374;28;20054;-55
2022/03/15 00:09:28;;;;;;;13.52;7.70;;;;;;;-148.16;100.00;58328.31;4993155;28;20057;-56
2022/03/15 00:12:14;;;;;;;16.30;7.78;;;;;;;-148.16;100.00;58328.31;4993966;28;20042;-56
2022/03/15 00:14:59;;;;;;;16.10;7.65;;;;;;;-148.16;100.00;58328.31;4994006;28;20076;-57
2022/03/15 00:17:47;;;;;;;16.63;7.65;;;;;;;-148.16;100.00;58328.31;5006682;28;20077;-57
2022/03/15 00:20:32;;;;;;;13.45;7.22;;;;;;;-148.16;100.00;58328.31;4993931;28;20505;-57
2022/03/15 00:23:17;;;;;;;13.32;6.95;;;;;;;-148.16;100.00;58328.31;4994066;28;20062;-55
2022/03/15 00:26:02;;;;;;;15.50;7.88;;;;;;;-148.16;100.00;58328.31;4993837;28;20054;-58
2022/03/15 00:28:47;;;;;;;15.43;7.45;;;;;;;-148.16;100.00;58328.31;4993692;28;20050;-58
2022/03/15 00:31:32;;;;;;;15.15;6.90;;;;;;;-148.16;100.00;58328.31;4992687;28;20046;-57
2022/03/15 00:34:17;;;;;;;14.00;7.80;;;;;;;-148.16;100.00;58328.31;4978818;28;20543;-58
2022/03/15 00:37:02;;;;;;;18.05;8.38;;;;;;;-148.16;100.00;58328.31;5007048;28;20073;-56
2022/03/15 00:39:51;;;;;;;16.00;7.50;;;;;;;-148.16;100.00;58328.31;4995243;28;20061;-57
2022/03/15 00:42:36;;;;;;;14.27;7.53;;;;;;;-148.16;100.00;58328.31;5007612;28;20038;-57
2022/03/15 00:45:23;;;;;;;13.93;7.55;;;;;;;-148.16;100.00;58328.31;4997598;28;20124;-57
2022/03/15 00:48:08;;;;;;;16.35;8.02;;;;;;;-148.16;100.00;58328.31;5012692;28;20059;-58
2022/03/15 00:50:54;;;;;;;15.13;7.50;;;;;;;-148.16;100.00;58328.31;5020192;28;20066;-57
2022/03/15 00:53:39;;;;;;;13.68;7.25;;;;;;;-148.16;100.00;58328.31;5046642;28;20050;-59
2022/03/15 00:56:24;;;;;;;15.40;8.68;;;;;;;-148.16;100.00;58328.31;5025345;28;20042;-58
2022/03/15 00:59:09;;;;;;;14.40;7.28;;;;;;;-148.16;100.00;58328.31;5006291;28;20095;-58
2022/03/15 01:01:56;;;;;;;15.43;7.57;;;;;;;-148.16;100.00;58328.31;5016335;28;20081;-58
2022/03/15 01:04:41;;;;;;;15.05;8.07;;;;;;;-148.16;100.00;58328.31;5013394;28;20037;-57
2022/03/15 01:07:26;;;;;;;14.98;7.78;;;;;;;-148.16;100.00;58328.31;5011915;28;20069;-56
2022/03/15 01:10:10;;;;;;;13.88;7.63;;;;;;;-148.16;100.00;58328.31;5013006;28;20061;-58
2022/03/15 01:12:55;;;;;;;15.90;8.48;;;;;;;-148.16;100.00;58328.31;5011452;28;20056;-57
2022/03/15 01:15:43;;;;;;;14.85;8.40;;;;;;;-148.16;100.00;58328.31;5025299;28;20081;-57
2022/03/15 01:18:30;;;;;;;16.38;7.68;;;;;;;-148.16;100.00;58328.31;4998266;28;20041;-58
2022/03/15 01:21:16;;;;;;;17.38;7.93;;;;;;;-148.16;100.00;58328.31;5025113;28;20485;-57
2022/03/15 01:24:08;;;;;;;15.40;8.05;;;;;;;-148.16;100.00;58328.31;5011330;28;20052;-58
2022/03/15 01:26:54;;;;;;;14.85;7.80;;;;;;;-148.16;100.00;58328.31;5025148;28;20056;-58
2022/03/15 01:29:39;;;;;;;14.90;7.30;;;;;;;-148.16;100.00;58328.31;5011259;28;20100;-58
2022/03/15 01:32:24;;;;;;;13.55;8.18;;;;;;;-148.16;100.00;58328.31;5012160;28;20049;-57
2022/03/15 01:35:09;;;;;;;15.82;8.05;;;;;;;-148.16;100.00;58328.31;5012549;28;20054;-57
2022/03/15 01:37:53;;;;;;;14.82;8.45;;;;;;;-148.16;100.00;58328.31;5011570;28;20405;-58
2022/03/15 01:40:38;;;;;;;19.52;8.23;;;;;;;-148.16;100.00;58328.31;4997182;28;20543;-57
2022/03/15 01:43:23;;;;;;;16.15;7.90;;;;;;;-148.16;100.00;58328.31;5011984;28;20041;-57
2022/03/15 01:46:07;;;;;;;16.85;9.07;;;;;;;-148.16;100.00;58328.31;5010707;28;20617;-58
2022/03/15 01:48:52;;;;;;;16.00;7.78;;;;;;;-148.16;100.00;58328.31;5024510;28;20054;-57
2022/03/15 01:51:40;;;;;;;17.65;8.63;;;;;;;-148.16;100.00;58328.31;5024638;28;20065;-58
2022/03/15 01:54:25;;;;;;;13.98;8.00;;;;;;;-148.16;100.00;58328.31;5011960;28;20076;-58
2022/03/15 01:57:10;;;;;;;14.05;7.43;;;;;;;-148.16;100.00;58328.31;5024718;28;20053;-57
2022/03/15 01:59:56;;;;;;;13.80;7.70;;;;;;;-148.16;100.00;58328.31;5024548;28;20053;-57
2022/03/15 02:02:41;;;;;;;16.70;8.40;;;;;;;-148.16;100.00;58328.31;5010751;28;20042;-57
2022/03/15 02:05:26;;;;;;;12.52;7.63;;;;;;;-148.16;100.00;58328.31;5011997;28;20061;-57
2022/03/15 02:08:13;;;;;;;14.20;7.95;;;;;;;-148.16;100.00;58328.31;5011351;28;20095;-57
2022/03/15 02:10:58;;;;;;;14.35;7.55;;;;;;;-148.16;100.00;58328.31;5011878;28;20168;-57
2022/03/15 02:13:44;;;;;;;15.20;7.68;;;;;;;-148.16;100.00;58328.31;5011560;28;20086;-57
2022/03/15 02:16:29;;;;;;;15.25;8.27;;;;;;;-148.16;100.00;58328.31;5024403;28;20462;-55
2022/03/15 02:19:14;;;;;;;16.45;7.82;;;;;;;-148.16;100.00;58328.31;5011737;28;20057;-58
2022/03/15 02:21:59;;;;;;;17.92;8.27;;;;;;;-148.16;100.00;58328.31;5009708;28;20073;-58
2022/03/15 02:24:44;;;;;;;17.77;8.45;;;;;;;-148.16;100.00;58328.31;5024525;28;20049;-57
2022/03/15 02:27:30;;;;;;;16.95;8.98;;;;;;;-148.16;100.00;58328.31;5010382;28;20076;-57
2022/03/15 02:30:14;;;;;;;13.23;8.07;;;;;;;-148.16;100.00;58328.31;5011580;28;20152;-57
2022/03/15 02:32:59;;;;;;;13.35;7.63;;;;;;;-148.16;100.00;58328.31;5023967;28;20064;-57
2022/03/15 02:35:44;;;;;;;13.93;7.38;;;;;;;-148.16;100.00;58328.31;5023965;28;20060;-57
2022/03/15 02:38:29;;;;;;;18.55;7.95;;;;;;;-148.16;100.00;58328.31;5011811;28;20038;-58
2022/03/15 02:41:14;;;;;;;14.32;7.53;;;;;;;-148.16;100.00;58328.31;5011384;28;20113;-57
2022/03/15 02:43:59;;;;;;;17.08;8.30;;;;;;;-148.16;100.00;58328.31;5010825;28;20065;-56
2022/03/15 02:46:48;;;;;;;14.52;7.68;;;;;;;-148.16;100.00;58328.31;5024107;28;20057;-56
2022/03/15 02:49:33;;;;;;;15.13;7.75;;;;;;;-148.16;100.00;58328.31;5010612;28;20533;-57
2022/03/15 02:52:17;;;;;;;16.08;8.05;;;;;;;-148.16;100.00;58328.31;5010249;28;20049;-57
2022/03/15 02:55:03;;;;;;;15.15;7.80;;;;;;;-148.16;100.00;58328.31;5009757;28;20450;-58
2022/03/15 02:57:49;;;;;;;15.23;7.95;;;;;;;-148.16;100.00;58328.31;5011099;28;20042;-57
2022/03/15 03:00:34;;;;;;;14.75;7.90;;;;;;;-148.16;100.00;58328.31;5011074;28;20073;-58
2022/03/15 03:03:22;;;;;;;19.45;8.75;;;;;;;-148.16;100.00;58328.31;5010141;28;20034;-57
2022/03/15 03:06:07;;;;;;;15.98;7.72;;;;;;;-148.16;100.00;58328.31;5011162;28;20050;-56
2022/03/15 03:08:52;;;;;;;14.40;7.82;;;;;;;-148.16;100.00;58328.31;5011069;28;20057;-57
2022/03/15 03:11:37;;;;;;;16.00;7.97;;;;;;;-148.16;100.00;58328.31;4982302;28;20045;-58
2022/03/15 03:14:22;;;;;;;15.55;8.13;;;;;;;-148.16;100.00;58328.31;4996477;28;20062;-56
2022/03/15 03:17:07;;;;;;;16.75;7.93;;;;;;;-148.16;100.00;58328.31;5010943;28;20556;-57
2022/03/15 03:19:52;;;;;;;15.38;7.40;;;;;;;-148.16;100.00;58328.31;5010775;28;20050;-57
2022/03/15 03:22:36;;;;;;;13.20;7.35;;;;;;;-148.16;100.00;58328.31;5010843;28;20053;-57
2022/03/15 03:25:21;;;;;;;15.10;7.80;;;;;;;-148.16;100.00;58328.31;5010099;28;20104;-56
2022/03/15 03:28:08;;;;;;;12.10;7.38;;;;;;;-148.16;100.00;58328.31;5011016;28;20041;-57
2022/03/15 03:30:53;;;;;;;15.55;8.00;;;;;;;-148.16;100.00;58328.31;5009867;28;20064;-56
2022/03/15 03:33:38;;;;;;;16.67;8.02;;;;;;;-148.16;100.00;58328.31;5012054;28;20068;-57
2022/03/15 03:36:24;;;;;;;13.98;7.97;;;;;;;-148.16;100.00;58328.31;5014434;28;20069;-56
2022/03/15 03:39:11;;;;;;;16.38;8.00;;;;;;;-148.16;100.00;58328.31;5014304;28;20551;-57
2022/03/15 03:41:55;;;;;;;18.80;8.15;;;;;;;-148.16;100.00;58328.31;5013159;28;20069;-57
2022/03/15 03:44:43;;;;;;;17.90;8.65;;;;;;;-148.16;100.00;58328.31;5005493;28;20046;-57
2022/03/15 03:47:28;;;;;;;13.45;7.75;;;;;;;-148.16;100.00;58328.31;5014273;28;20045;-57
2022/03/15 03:50:12;;;;;;;15.40;8.07;;;;;;;-148.16;100.00;58328.31;5014118;28;20075;-56
2022/03/15 03:52:57;;;;;;;18.00;7.93;;;;;;;-148.16;100.00;58328.31;5029295;28;20052;-55
2022/03/15 03:55:43;;;;;;;15.95;8.13;;;;;;;-148.16;100.00;58328.31;5043090;28;20050;-58
2022/03/15 03:58:27;;;;;;;14.73;7.80;;;;;;;-148.16;100.00;58328.31;5026410;28;20201;-56
2022/03/15 04:01:12;;;;;;;16.05;7.38;;;;;;;-148.16;100.00;58328.31;5010836;28;20046;-58
2022/03/15 04:04:04;;;;;;;12.50;7.80;;;;;;;-148.16;100.00;58328.31;4998094;28;20481;-56
2022/03/15 04:06:50;;;;;;;17.02;7.47;;;;;;;-148.16;100.00;58328.31;5014760;28;20076;-57
2022/03/15 04:09:34;;;;;;;14.50;8.40;;;;;;;-148.16;100.00;58328.31;5013208;28;20464;-56
2022/03/15 04:12:20;;;;;;;16.77;7.68;;;;;;;-148.16;100.00;58328.31;5012284;28;20088;-57
2022/03/15 04:15:18;;;;;;;16.23;7.50;;;;;;;-148.16;100.00;58328.31;4998933;28;20045;-57
2022/03/15 04:18:13;;;;;;;13.20;6.88;;;;;;;-148.16;100.00;58328.31;4993386;28;20046;-57
2022/03/15 04:20:58;;;;;;;15.52;8.07;;;;;;;-148.16;100.00;58328.31;5004570;28;20048;-57
2022/03/15 04:23:45;;;;;;;13.63;7.40;;;;;;;-148.16;100.00;58328.31;5026616;28;20508;-56
2022/03/15 04:26:29;;;;;;;17.60;8.23;;;;;;;-148.16;100.00;58328.31;5012866;28;20493;-56
2022/03/15 04:29:14;;;;;;;14.93;7.70;;;;;;;-148.16;100.00;58328.31;5014292;28;20077;-57
2022/03/15 04:31:59;;;;;;;15.70;8.25;;;;;;;-148.16;100.00;58328.31;5012689;28;20067;-55
2022/03/15 04:34:44;;;;;;;16.88;8.38;;;;;;;-148.16;100.00;58328.31;5013420;28;20061;-57
2022/03/15 04:37:29;;;;;;;17.17;7.50;;;;;;;-148.16;100.00;58328.31;5012527;28;20054;-56
2022/03/15 04:40:15;;;;;;;16.33;7.45;;;;;;;-148.16;100.00;58328.31;5015224;28;20046;-57
2022/03/15 04:43:01;;;;;;;17.25;7.80;;;;;;;-148.16;100.00;58328.31;5012796;28;20061;-56
2022/03/15 04:45:46;;;;;;;15.00;7.97;;;;;;;-148.16;100.00;58328.31;5012566;28;20038;-57
2022/03/15 04:48:31;;;;;;;15.13;8.50;;;;;;;-148.16;100.00;58328.31;5012919;28;20045;-58
2022/03/15 04:51:16;;;;;;;13.82;7.88;;;;;;;-148.16;100.00;58328.31;5011905;28;20165;-57
2022/03/15 04:54:01;;;;;;;16.63;8.32;;;;;;;-148.16;100.00;58328.31;5012646;28;20038;-56
2022/03/15 04:56:46;;;;;;;15.20;7.75;;;;;;;-148.16;100.00;58328.31;5013110;28;20557;-56
2022/03/15 04:59:30;;;;;;;14.43;8.45;;;;;;;-148.16;100.00;58328.31;5011816;28;20042;-57
2022/03/15 05:02:15;;;;;;;19.67;7.85;;;;;;;-148.16;100.00;58328.31;5012837;28;20041;-58
2022/03/15 05:05:00;;;;;;;13.88;7.68;;;;;;;-148.16;100.00;58328.31;5012775;28;20089;-58
2022/03/15 05:07:44;;;;;;;17.58;8.25;;;;;;;-148.16;100.00;58328.31;5012467;28;20539;-57
2022/03/15 05:13:45;;;;;;;14.55;7.32;;;;;;;-148.16;100.00;58328.31;5022566;28;20398;-57
2022/03/15 05:16:30;;;;;;;22.80;7.80;;;;;;;-148.16;100.00;58328.31;5006920;28;20141;-57
2022/03/15 05:19:16;;;;;;;17.10;7.95;;;;;;;-148.16;100.00;58328.31;5016703;28;20042;-57
2022/03/15 05:22:01;;;;;;;17.27;8.48;;;;;;;-148.16;100.00;58328.31;5027894;28;20469;-56
2022/03/15 05:24:46;;;;;;;16.45;8.07;;;;;;;-148.16;100.00;58328.31;5012308;28;20065;-56
2022/03/15 05:27:35;;;;;;;17.10;8.95;;;;;;;-148.16;100.00;58328.31;5012233;28;20120;-57
2022/03/15 05:30:19;;;;;;;15.02;8.68;;;;;;;-148.16;100.00;58328.31;5012209;28;20456;-58
2022/03/15 05:33:04;;;;;;;14.52;8.18;;;;;;;-148.16;100.00;58328.31;5012354;28;20447;-57
2022/03/15 05:35:52;;;;;;;17.95;8.63;;;;;;;-148.16;100.00;58328.31;5029197;28;20069;-57
2022/03/15 05:38:36;;;;;;;18.98;8.65;;;;;;;-148.16;100.00;58328.31;5031345;28;20116;-57
2022/03/15 05:41:22;;;;;;;12.88;7.50;;;;;;;-148.16;100.00;58328.31;5031881;28;20044;-52
2022/03/15 05:44:06;;;;;;;14.23;7.60;;;;;;;-148.16;100.00;58328.31;5030634;28;20055;-56
2022/03/15 05:46:52;;;;;;;15.75;8.07;;;;;;;-148.16;100.00;58328.31;5031571;28;20044;-56
2022/03/15 05:49:37;;;;;;;16.70;8.48;;;;;;;-148.16;100.00;58328.31;5017072;28;20567;-57
2022/03/15 05:52:22;;;;;;;13.88;7.85;;;;;;;-148.16;100.00;58328.31;5011447;28;20104;-57
2022/03/15 05:55:07;;;;;;;13.85;7.75;;;;;;;-148.16;100.00;58328.31;5011611;28;20053;-56
2022/03/15 05:57:51;;;;;;;13.25;7.45;;;;;;;-148.16;100.00;58328.31;5010263;28;20482;-57
2022/03/15 06:00:37;;;;;;;22.02;8.13;;;;;;;-148.16;100.00;58328.31;5010755;28;20041;-56
2022/03/15 06:03:22;;;;;;;17.02;7.88;;;;;;;-148.16;100.00;58328.31;5038719;28;20056;-55
2022/03/15 06:06:07;;;;;;;14.18;7.63;;;;;;;-148.16;100.00;58328.31;5011574;28;20069;-57
2022/03/15 06:08:52;;;;;;;22.33;11.25;;;;;;;-148.16;100.00;58328.31;5011523;28;20103;-54
2022/03/15 06:11:39;;;;;;;14.50;8.40;;;;;;;-148.16;100.00;58328.31;5008437;28;20580;-59
2022/03/15 06:14:24;;;;;;;19.65;9.15;;;;;;;-148.16;100.00;58328.31;5011330;28;20433;-55
2022/03/15 06:17:09;;;;;;;13.10;7.68;;;;;;;-148.16;100.00;58328.31;5009278;28;20045;-56
2022/03/15 06:19:53;;;;;;;13.82;7.95;;;;;;;-148.16;100.00;58328.31;5031034;28;20038;-57
2022/03/15 06:22:39;;;;;;;16.63;8.68;;;;;;;-148.16;100.00;58328.31;5011305;28;20552;-55
2022/03/15 06:25:24;;;;;;;15.82;8.15;;;;;;;-148.16;100.00;58328.31;5007292;28;20081;-57
2022/03/15 06:28:09;;;;;;;13.85;7.82;;;;;;;-148.16;100.00;58328.31;5023678;28;20042;-58
2022/03/15 06:30:57;;;;;;;20.55;8.23;;;;;;;-148.16;100.00;58328.31;5009823;28;20069;-57
2022/03/15 06:33:47;;;;;;;15.68;8.65;;;;;;;-148.16;100.00;58328.31;5010461;28;20066;-58
2022/03/15 06:36:34;;;;;;;24.40;8.60;;;;;;;-148.16;100.00;58328.31;5004651;28;20057;-55
2022/03/15 06:39:19;;;;;;;24.67;7.88;;;;;;;-148.16;100.00;58328.31;5007830;28;20130;-51
2022/03/15 06:42:11;;;;;;;16.05;7.13;;;;;;;-148.16;100.00;58328.31;5005715;28;20482;-56
2022/03/15 06:44:57;;;;;;;14.70;6.78;;;;;;;-148.16;100.00;58328.31;5010608;28;20050;-54
2022/03/15 06:47:42;;;;;;;19.02;7.75;;;;;;;-148.16;100.00;58328.31;4991370;28;20074;-54
2022/03/15 06:50:27;;;;;;;15.25;8.48;;;;;;;-148.16;100.00;58328.31;5020378;28;20058;-59
2022/03/15 06:53:11;;;;;;;15.25;8.60;;;;;;;-148.16;100.00;58328.31;5011021;28;20056;-57
2022/03/15 06:55:56;;;;;;;15.88;9.10;;;;;;;-148.16;100.00;58328.31;5010748;28;20408;-58
2022/03/15 06:58:43;;;;;;;15.35;8.52;;;;;;;-148.16;100.00;58328.31;5010553;28;20042;-58
2022/03/15 07:01:28;;;;;;;17.60;8.93;;;;;;;-148.16;100.00;58328.31;5010964;28;20066;-58
2022/03/15 07:04:13;;;;;;;15.93;9.07;;;;;;;-148.16;100.00;58328.31;5010383;28;20073;-57
2022/03/15 07:06:57;;;;;;;15.73;8.95;;;;;;;-148.16;100.00;58328.31;5008988;28;20080;-60
2022/03/15 07:09:43;;;;;;;17.40;8.50;;;;;;;-148.16;100.00;58328.31;4984238;28;20187;-59
2022/03/15 07:12:27;;;;;;;18.58;8.85;;;;;;;-148.16;100.00;58328.31;4996411;28;20048;-59
2022/03/15 07:15:14;;;;;;;16.52;9.00;;;;;;;-148.16;100.00;58328.31;5013672;28;20050;-59
2022/03/15 07:17:59;;;;;;;19.75;8.73;;;;;;;-148.16;100.00;58328.31;5012296;28;20170;-59
2022/03/15 07:20:44;;;;;;;16.88;9.02;;;;;;;-148.16;100.00;58328.31;5012036;28;20059;-59
2022/03/15 07:23:28;;;;;;;17.73;8.25;;;;;;;-148.16;100.00;58328.31;5013295;28;20034;-58
2022/03/15 07:26:13;;;;;;;17.17;8.73;;;;;;;-148.16;100.00;58328.31;5011438;28;20045;-57
2022/03/15 07:28:58;;;;;;;16.88;9.30;;;;;;;-148.16;100.00;58328.31;4995078;28;20054;-58
2022/03/15 07:31:44;;;;;;;17.95;8.55;;;;;;;-148.16;100.00;58328.31;4994893;28;20093;-59
2022/03/15 07:34:28;;;;;;;16.02;9.35;;;;;;;-148.16;100.00;58328.31;4994407;28;20070;-58
2022/03/15 07:37:13;;;;;;;15.05;7.90;;;;;;;-148.16;100.00;58328.31;5009402;28;20470;-57
2022/03/15 07:39:58;;;;;;;18.35;8.80;;;;;;;-148.16;100.00;58328.31;5015134;28;20046;-58
2022/03/15 07:42:43;;;;;;;15.57;8.70;;;;;;;-148.16;100.00;58328.31;5015195;28;20045;-58
2022/03/15 07:45:28;;;;;;;14.00;8.85;;;;;;;-148.16;100.00;58328.31;5015008;28;20088;-58
2022/03/15 07:48:13;;;;;;;15.75;8.57;;;;;;;-148.16;100.00;58328.31;5015302;28;20485;-58
2022/03/15 07:50:57;;;;;;;21.33;10.23;;;;;;;-148.16;100.00;58328.31;5015155;28;20081;-58
2022/03/15 07:53:44;;;;;;;21.80;8.65;;;;;;;-148.16;100.00;58328.31;5014554;28;20131;-58
2022/03/15 07:56:28;;;;;;;15.38;8.35;;;;;;;-148.16;100.00;58328.31;5014792;28;20127;-59
2022/03/15 07:59:13;;;;;;;20.52;10.20;;;;;;;-148.16;100.00;58328.31;5012699;28;20045;-59
2022/03/15 08:01:57;;;;;;;16.83;9.07;;;;;;;-148.16;100.00;58328.31;5012985;28;20045;-59
2022/03/15 08:04:42;;;;;;;22.55;10.27;;;;;;;-148.16;100.00;58328.31;5012960;28;20042;-60
2022/03/15 08:07:28;;;;;;;17.15;8.07;;;;;;;-148.16;100.00;58328.31;5011665;28;20120;-59
2022/03/15 08:10:12;;;;;;;17.98;9.35;;;;;;;-148.16;100.00;58328.31;5012756;28;20157;-59
2022/03/15 08:12:57;;;;;;;19.70;9.35;;;;;;;-148.16;100.00;58328.31;5011510;28;20053;-59
2022/03/15 08:15:43;;;;;;;19.17;8.70;;;;;;;-148.16;100.00;58328.31;5012768;28;20145;-59
2022/03/15 08:18:28;;;;;;;24.10;9.40;;;;;;;-148.16;100.00;58328.31;5013154;28;20073;-59
2022/03/15 08:21:15;;;;;;;17.58;9.05;;;;;;;-148.16;100.00;58328.31;5013309;28;20137;-60
2022/03/15 08:23:59;;;;;;;17.75;9.55;;;;;;;-148.16;100.00;58328.31;5014052;28;20504;-59
2022/03/15 08:26:44;;;;;;;15.45;8.13;;;;;;;-148.16;100.00;58328.31;5013949;28;20042;-59
2022/03/15 08:29:29;;;;;;;17.58;9.13;;;;;;;-148.16;100.00;58328.31;5013980;28;20056;-58
2022/03/15 08:32:13;;;;;;;15.73;8.80;;;;;;;-148.16;100.00;58328.31;5014019;28;20046;-59
2022/03/15 08:34:58;;;;;;;17.42;9.10;;;;;;;-148.16;100.00;58328.31;5014306;28;20100;-59
2022/03/15 08:37:43;;;;;;;17.02;9.65;;;;;;;-148.16;100.00;58328.31;5013182;28;20355;-60
2022/03/15 08:40:28;;;;;;;17.05;8.93;;;;;;;-148.16;100.00;58328.31;5014496;28;20069;-60
2022/03/15 08:43:20;;;;;;;16.55;8.38;;;;;;;-148.16;100.00;58328.31;5014008;28;20046;-60
2022/03/15 08:46:05;;;;;;;18.17;9.35;;;;;;;-148.16;100.00;58328.31;5014173;28;20041;-58
2022/03/15 08:48:51;;;;;;;17.77;9.48;;;;;;;-148.16;100.00;58328.31;5013844;28;20485;-60
2022/03/15 08:51:35;;;;;;;15.93;8.27;;;;;;;-148.16;100.00;58328.31;5012511;28;20046;-60
2022/03/15 08:54:22;;;;;;;14.90;9.27;;;;;;;-148.16;100.00;58328.31;5014018;28;20048;-60
2022/03/15 08:57:07;;;;;;;14.95;8.50;;;;;;;-148.16;100.00;58328.31;5014128;28;20044;-60
2022/03/15 08:59:51;;;;;;;17.33;9.27;;;;;;;-148.16;100.00;58328.31;5012376;28;20041;-59
2022/03/15 09:02:36;;;;;;;19.80;9.07;;;;;;;-148.16;100.00;58328.31;5013577;28;20072;-59
2022/03/15 09:05:21;;;;;;;19.15;8.45;;;;;;;-148.16;100.00;58328.31;5013297;28;20532;-59
2022/03/15 09:08:06;;;;;;;16.00;8.77;;;;;;;-148.16;100.00;58328.31;5012502;28;20080;-60
2022/03/15 09:10:50;;;;;;;16.33;8.38;;;;;;;-148.16;100.00;58328.31;5013199;28;20474;-59
2022/03/15 09:13:35;;;;;;;18.52;9.20;;;;;;;-148.16;100.00;58328.31;4998297;28;20346;-59
2022/03/15 09:16:20;;;;;;;18.88;8.82;;;;;;;-148.16;100.00;58328.31;4998541;28;20046;-60
2022/03/15 09:19:05;;;;;;;16.02;8.77;;;;;;;-148.16;100.00;58328.31;5013161;28;20041;-59
2022/03/15 09:21:50;;;;;;;17.35;8.70;;;;;;;-148.16;100.00;58328.31;5013042;28;20056;-59
2022/03/15 09:24:36;;;;;;;14.85;8.85;;;;;;;-148.16;100.00;58328.31;5012389;28;20096;-59
2022/03/15 09:27:21;;;;;;;18.92;8.48;;;;;;;-148.16;100.00;58328.31;5013126;28;20374;-59
2022/03/15 09:30:06;;;;;;;14.00;8.85;;;;;;;-148.16;100.00;58328.31;5011929;28;20038;-60
2022/03/15 09:32:51;;;;;;;21.98;10.18;;;;;;;-148.16;100.00;58328.31;5011032;28;20042;-59
2022/03/15 09:35:35;;;;;;;14.88;8.23;;;;;;;-148.16;100.00;58328.31;4997798;28;20074;-59
2022/03/15 09:38:21;;;;;;;19.58;10.07;;;;;;;-148.16;100.00;58328.31;5010616;28;20096;-59
2022/03/15 09:41:06;;;;;;;16.98;8.98;;;;;;;-148.16;100.00;58328.31;5013090;28;20045;-58
2022/03/15 09:43:57;;;;;;;16.05;8.73;;;;;;;-148.16;100.00;58328.31;5011952;28;20074;-60
2022/03/15 09:46:50;;;;;;;20.73;9.85;;;;;;;-148.16;100.00;58328.31;4970748;28;20404;-59
2022/03/15 09:49:43;;;;;;;20.13;10.40;;;;;;;-148.16;100.00;58328.31;4963718;28;20076;-60
2022/03/15 09:52:29;;;;;;;20.58;9.65;;;;;;;-148.16;100.00;58328.31;5012850;28;20046;-59
2022/03/15 09:55:14;;;;;;;16.13;9.10;;;;;;;-148.16;100.00;58328.31;5011137;28;20046;-58
2022/03/15 09:58:00;;;;;;;18.75;9.25;;;;;;;-148.16;100.00;58328.31;5012411;28;20731;-59
2022/03/15 10:00:51;;;;;;;13.90;8.30;;;;;;;-148.16;100.00;58328.31;5012971;28;20398;-58
2022/03/15 10:03:36;;;;;;;17.75;8.95;;;;;;;-148.16;100.00;58328.31;5012519;28;20103;-58
2022/03/15 10:06:23;;;;;;;16.25;9.77;;;;;;;-148.16;100.00;58328.31;5012541;28;20125;-59
2022/03/15 10:09:09;;;;;;;15.13;9.35;;;;;;;-148.16;100.00;58328.31;5011804;28;20097;-59
2022/03/15 10:11:54;;;;;;;14.40;8.65;;;;;;;-148.16;100.00;58328.31;5012359;28;20042;-58
2022/03/15 10:14:43;;;;;;;19.88;9.43;;;;;;;-148.16;100.00;58328.31;5012265;28;20379;-49
2022/03/15 10:17:28;;;;;;;17.90;8.38;;;;;;;-148.16;100.00;58328.31;5012163;28;20488;-57
2022/03/15 10:20:17;;;;;;;17.65;9.68;;;;;;;-148.16;100.00;58328.31;5017528;28;20071;-57
2022/03/15 10:23:03;;;;;;;16.65;9.85;;;;;;;-148.16;100.00;58328.31;5019214;28;20076;-60
2022/03/15 10:25:50;;;;;;;18.83;10.18;;;;;;;-148.16;100.00;58328.31;5017505;28;20041;-57
2022/03/15 10:28:36;;;;;;;15.77;8.57;;;;;;;-148.16;100.00;58328.31;5025192;28;20070;-57
2022/03/15 10:31:23;;;;;;;16.80;8.40;;;;;;;-148.16;100.00;58328.31;5025271;28;20042;-58
2022/03/15 10:34:08;;;;;;;15.02;8.48;;;;;;;-148.16;100.00;58328.31;4997595;28;20066;-58
2022/03/15 10:36:54;;;;;;;17.23;9.15;;;;;;;-148.16;100.00;58328.31;5011996;28;20053;-59
2022/03/15 10:39:42;;;;;;;16.30;9.20;;;;;;;-148.16;100.00;58328.31;5012108;28;20112;-59
2022/03/15 10:42:27;;;;;;;15.45;9.57;;;;;;;-148.16;100.00;58328.31;5011297;28;20053;-59
2022/03/15 10:45:22;;;;;;;18.60;8.35;;;;;;;-148.16;100.00;58328.31;5011622;28;20034;-58
2022/03/15 10:48:35;;;;;;;14.40;8.10;;;;;;;-148.16;100.00;58328.31;5012025;28;20091;-60
2022/03/15 10:51:20;;;;;;;19.45;8.60;;;;;;;-148.16;100.00;58328.31;5038606;28;20110;-59
2022/03/15 10:54:06;;;;;;;13.13;8.15;;;;;;;-148.16;100.00;58328.31;5025004;28;20050;-51
2022/03/15 10:56:53;;;;;;;14.50;8.85;;;;;;;-148.16;100.00;58328.31;5010645;28;20070;-50
2022/03/15 10:59:41;;;;;;;17.45;7.80;;;;;;;-148.16;100.00;58328.31;5010465;28;20082;-53
2022/03/15 11:02:30;;;;;;;12.25;7.60;;;;;;;-148.16;100.00;58328.31;5011665;28;20049;-51
2022/03/15 11:05:47;;;;;;;13.57;8.07;;;;;;;-148.16;100.00;58328.31;5014743;28;20054;-49
2022/03/15 11:08:34;;;;;;;11.43;7.40;;;;;;;-148.16;100.00;58328.31;5014061;28;20050;-53
2022/03/15 11:11:26;;;;;;;13.85;7.50;;;;;;;-148.16;100.00;58328.31;5013108;28;20129;-49
2022/03/15 11:14:11;;;;;;;11.95;6.43;;;;;;;-148.16;100.00;58328.31;5015746;28;20045;-53
2022/03/15 11:16:57;;;;;;;10.77;6.88;;;;;;;-148.16;100.00;58328.31;5013523;28;20520;-54
2022/03/15 11:19:51;;;;;;;11.35;6.05;;;;;;;-148.16;100.00;58328.31;5010727;28;20367;-53
2022/03/15 11:22:36;;;;;;;8.45;5.72;;;;;;;-148.16;100.00;58328.31;5038655;28;20276;-51
2022/03/15 11:25:22;;;;;;;9.90;5.97;;;;;;;-148.16;100.00;58328.31;5011708;28;20054;-53
2022/03/15 11:28:14;;;;;;;8.85;5.00;;;;;;;-148.16;100.00;58328.31;5010167;28;20124;-53
2022/03/15 11:30:59;;;;;;;8.90;4.85;;;;;;;-148.16;100.00;58328.31;5010958;28;20103;-56
2022/03/15 11:33:47;;;;;;;10.45;6.47;;;;;;;-148.16;100.00;58328.31;5009825;28;20138;-51
2022/03/15 11:36:33;;;;;;;13.93;6.20;;;;;;;-148.16;100.00;58328.31;5007666;28;20052;-55
2022/03/15 11:39:19;;;;;;;12.10;5.85;;;;;;;-148.16;100.00;58328.31;5004692;28;20038;-53
2022/03/15 11:42:08;;;;;;;10.07;6.78;;;;;;;-148.16;100.00;58328.31;5010452;28;20046;-49
2022/03/15 11:45:09;;;;;;;7.97;4.50;;;;;;;-148.16;100.00;58328.31;5010588;28;20125;-53
2022/03/15 11:48:20;;;;;;;11.02;4.97;;;;;;;-148.16;100.00;58328.31;5006885;28;20065;-55
2022/03/15 11:51:13;;;;;;;7.47;4.55;;;;;;;-148.16;100.00;58328.31;5009156;28;20046;-54
2022/03/15 11:54:23;;;;;;;7.47;4.93;;;;;;;-148.16;100.00;58328.31;5008308;28;20045;-53
2022/03/15 11:57:23;;;;;;;6.32;4.03;;;;;;;-148.16;100.00;58328.31;5012897;28;20072;-55
2022/03/15 12:00:09;;;;;;;9.75;4.05;;;;;;;-148.16;100.00;58328.31;5012568;28;20408;-54
2022/03/15 12:03:02;;;;;;;7.18;4.32;;;;;;;-148.16;100.00;58328.31;5014148;28;20120;-52
2022/03/15 12:05:55;;;;;;;7.13;4.60;;;;;;;-148.16;100.00;58328.31;5012713;28;20088;-53
2022/03/15 12:08:40;;;;;;;8.52;4.80;;;;;;;-148.16;100.00;58328.31;5013003;28;20052;-53
2022/03/15 12:11:37;;;;;;;7.82;4.78;;;;;;;-148.16;100.00;58328.31;4998122;28;20551;-53
2022/03/15 12:14:37;;;;;;;8.90;4.85;;;;;;;-148.16;100.00;58328.31;5009258;28;20042;-51
2022/03/15 12:17:22;;;;;;;9.65;4.28;;;;;;;-148.16;100.00;58328.31;5013751;28;20050;-50
2022/03/15 12:20:16;;;;;;;6.30;4.50;;;;;;;-148.16;100.00;58328.31;4985228;28;20045;-53
2022/03/15 12:23:05;;;;;;;7.22;4.82;;;;;;;-148.16;100.00;58328.31;5013486;28;20119;-57
2022/03/15 12:25:55;;;;;;;9.73;5.47;;;;;;;-148.16;100.00;58328.31;5012109;28;20440;-54
2022/03/15 12:28:40;;;;;;;8.63;4.68;;;;;;;-148.16;100.00;58328.31;5011261;28;20053;-50
2022/03/15 12:31:46;;;;;;;8.73;4.82;;;;;;;-148.16;100.00;58328.31;5009830;28;20046;-51